createdAt,value
2018-09-08T00:00:48.415Z,1009.34
2018-09-08T00:01:48.390Z,1009.38
2018-09-08T00:02:48.386Z,1009.36
2018-09-08T00:03:48.374Z,1009.41
2018-09-08T00:04:48.359Z,1009.37
2018-09-08T00:05:48.376Z,1009.35
2018-09-08T00:06:48.340Z,1009.34
2018-09-08T00:07:48.346Z,1009.30
2018-09-08T00:08:48.324Z,1009.32
2018-09-08T00:09:48.306Z,1009.31
2018-09-08T00:10:48.329Z,1009.29
2018-09-08T00:11:48.293Z,1009.34
2018-09-08T00:12:48.285Z,1009.29
2018-09-08T00:13:48.266Z,1009.29
2018-09-08T00:14:48.251Z,1009.28
2018-09-08T00:15:48.243Z,1009.29
2018-09-08T00:16:48.248Z,1009.29
2018-09-08T00:17:48.257Z,1009.29
2018-09-08T00:18:48.217Z,1009.25
2018-09-08T00:19:48.205Z,1009.25
2018-09-08T00:20:48.187Z,1009.28
2018-09-08T00:21:48.190Z,1009.33
2018-09-08T00:22:48.214Z,1009.29
2018-09-08T00:23:48.158Z,1009.29
2018-09-08T00:24:48.149Z,1009.33
2018-09-08T00:25:48.182Z,1009.34
2018-09-08T00:26:48.138Z,1009.37
2018-09-08T00:27:48.113Z,1009.36
2018-09-08T00:28:48.102Z,1009.35
2018-09-08T00:29:48.106Z,1009.37
2018-09-08T00:30:48.081Z,1009.40
2018-09-08T00:31:48.341Z,1009.38
2018-09-08T00:32:48.063Z,1009.42
2018-09-08T00:33:48.067Z,1009.39
2018-09-08T00:34:48.043Z,1009.40
2018-09-08T00:35:48.036Z,1009.39
2018-09-08T00:36:48.032Z,1009.39
2018-09-08T00:37:48.013Z,1009.43
2018-09-08T00:38:48.006Z,1009.44
2018-09-08T00:39:47.986Z,1009.43
2018-09-08T00:40:47.975Z,1009.43
2018-09-08T00:41:47.975Z,1009.42
2018-09-08T00:42:47.951Z,1009.42
2018-09-08T00:43:47.946Z,1009.43
2018-09-08T00:44:47.931Z,1009.44
2018-09-08T00:45:48.012Z,1009.41
2018-09-08T00:46:47.924Z,1009.45
2018-09-08T00:47:47.901Z,1009.45
2018-09-08T00:48:47.914Z,1009.41
2018-09-08T00:49:47.878Z,1009.42
2018-09-08T00:50:47.882Z,1009.43
2018-09-08T00:51:47.874Z,1009.43
2018-09-08T00:52:47.863Z,1009.43
2018-09-08T00:53:47.846Z,1009.45
2018-09-08T00:54:47.826Z,1009.50
2018-09-08T00:55:47.814Z,1009.49
2018-09-08T00:56:47.833Z,1009.48
2018-09-08T00:57:47.803Z,1009.50
2018-09-08T00:58:47.789Z,1009.56
2018-09-08T00:59:47.784Z,1009.59
2018-09-08T01:00:47.761Z,1009.59
2018-09-08T01:01:47.760Z,1009.54
2018-09-08T01:02:47.767Z,1009.55
2018-09-08T01:03:47.771Z,1009.57
2018-09-08T01:04:47.734Z,1009.57
2018-09-08T01:05:47.718Z,1009.58
2018-09-08T01:06:47.696Z,1009.59
2018-09-08T01:07:47.697Z,1009.59
2018-09-08T01:08:47.676Z,1009.63
2018-09-08T01:09:47.671Z,1009.60
2018-09-08T01:10:47.657Z,1009.69
2018-09-08T01:11:47.649Z,1009.65
2018-09-08T01:12:47.645Z,1009.68
2018-09-08T01:13:47.625Z,1009.68
2018-09-08T01:14:47.620Z,1009.68
2018-09-08T01:15:47.619Z,1009.62
2018-09-08T01:16:47.595Z,1009.60
2018-09-08T01:17:47.591Z,1009.59
2018-09-08T01:18:47.571Z,1009.55
2018-09-08T01:19:47.559Z,1009.62
2018-09-08T01:20:47.552Z,1009.64
2018-09-08T01:21:47.548Z,1009.71
2018-09-08T01:22:47.553Z,1009.64
2018-09-08T01:23:47.515Z,1009.74
2018-09-08T01:24:47.503Z,1009.75
2018-09-08T01:25:47.514Z,1009.71
2018-09-08T01:26:47.486Z,1009.67
2018-09-08T01:27:47.488Z,1009.71
2018-09-08T01:28:47.462Z,1009.73
2018-09-08T01:29:47.451Z,1009.74
2018-09-08T01:30:47.441Z,1009.75
2018-09-08T01:31:47.429Z,1009.73
2018-09-08T01:32:47.431Z,1009.72
2018-09-08T01:33:47.412Z,1009.73
2018-09-08T01:34:47.398Z,1009.69
2018-09-08T01:35:47.389Z,1009.73
2018-09-08T01:36:47.376Z,1009.72
2018-09-08T01:37:47.378Z,1009.69
2018-09-08T01:38:47.358Z,1009.69
2018-09-08T01:39:47.362Z,1009.72
2018-09-08T01:40:47.337Z,1009.74
2018-09-08T01:41:47.322Z,1009.77
2018-09-08T01:42:47.326Z,1009.73
2018-09-08T01:43:47.301Z,1009.71
2018-09-08T01:44:47.292Z,1009.74
2018-09-08T01:45:47.284Z,1009.76
2018-09-08T01:46:47.271Z,1009.75
2018-09-08T01:47:47.272Z,1009.75
2018-09-08T01:48:47.261Z,1009.72
2018-09-08T01:49:47.237Z,1009.76
2018-09-08T01:50:47.231Z,1009.77
2018-09-08T01:51:47.232Z,1009.75
2018-09-08T01:52:47.219Z,1009.73
2018-09-08T01:53:47.197Z,1009.74
2018-09-08T01:54:47.187Z,1009.73
2018-09-08T01:55:47.175Z,1009.76
2018-09-08T01:56:47.164Z,1009.72
2018-09-08T01:57:47.185Z,1009.71
2018-09-08T01:58:47.143Z,1009.74
2018-09-08T01:59:47.132Z,1009.69
2018-09-08T02:00:47.122Z,1009.71
2018-09-08T02:01:47.110Z,1009.74
2018-09-08T02:02:47.100Z,1009.71
2018-09-08T02:03:47.106Z,1009.72
2018-09-08T02:04:47.089Z,1009.69
2018-09-08T02:05:47.068Z,1009.73
2018-09-08T02:06:47.060Z,1009.71
2018-09-08T02:07:47.047Z,1009.70
2018-09-08T02:08:47.047Z,1009.72
2018-09-08T02:09:47.031Z,1009.70
2018-09-08T02:10:47.037Z,1009.70
2018-09-08T02:11:47.019Z,1009.75
2018-09-08T02:12:46.994Z,1009.72
2018-09-08T02:13:46.993Z,1009.69
2018-09-08T02:14:46.978Z,1009.70
2018-09-08T02:15:46.965Z,1009.74
2018-09-08T02:16:46.961Z,1009.75
2018-09-08T02:17:46.944Z,1009.72
2018-09-08T02:18:46.942Z,1009.77
2018-09-08T02:19:46.920Z,1009.73
2018-09-08T02:20:46.908Z,1009.70
2018-09-08T02:21:46.918Z,1009.75
2018-09-08T02:22:46.896Z,1009.69
2018-09-08T02:23:46.894Z,1009.70
2018-09-08T02:24:46.866Z,1009.68
2018-09-08T02:25:46.855Z,1009.70
2018-09-08T02:26:46.848Z,1009.66
2018-09-08T02:27:46.835Z,1009.67
2018-09-08T02:28:46.841Z,1009.65
2018-09-08T02:29:46.813Z,1009.65
2018-09-08T02:30:46.807Z,1009.67
2018-09-08T02:31:46.795Z,1009.70
2018-09-08T02:32:46.788Z,1009.72
2018-09-08T02:33:46.791Z,1009.72
2018-09-08T02:34:46.767Z,1009.72
2018-09-08T02:35:46.749Z,1009.73
2018-09-08T02:36:46.745Z,1009.74
2018-09-08T02:37:46.731Z,1009.75
2018-09-08T02:38:46.730Z,1009.75
2018-09-08T02:39:46.708Z,1009.69
2018-09-08T02:40:46.695Z,1009.77
2018-09-08T02:41:46.684Z,1009.73
2018-09-08T02:42:46.682Z,1009.77
2018-09-08T02:43:46.675Z,1009.75
2018-09-08T02:44:46.672Z,1009.75
2018-09-08T02:45:46.645Z,1009.74
2018-09-08T02:46:46.632Z,1009.76
2018-09-08T02:47:46.623Z,1009.74
2018-09-08T02:48:46.624Z,1009.72
2018-09-08T02:49:46.619Z,1009.74
2018-09-08T02:50:46.592Z,1009.71
2018-09-08T02:51:46.578Z,1009.76
2018-09-08T02:52:46.571Z,1009.74
2018-09-08T02:53:46.569Z,1009.77
2018-09-08T02:54:46.551Z,1009.71
2018-09-08T02:55:46.540Z,1009.76
2018-09-08T02:56:46.524Z,1009.74
2018-09-08T02:57:46.524Z,1009.74
2018-09-08T02:58:46.515Z,1009.79
2018-09-08T02:59:46.493Z,1009.75
2018-09-08T03:00:46.484Z,1009.78
2018-09-08T03:01:46.473Z,1009.77
2018-09-08T03:02:46.468Z,1009.77
2018-09-08T03:03:46.464Z,1009.81
2018-09-08T03:04:46.440Z,1009.78
2018-09-08T03:05:46.441Z,1009.77
2018-09-08T03:06:46.419Z,1009.78
2018-09-08T03:07:46.426Z,1009.74
2018-09-08T03:08:46.421Z,1009.79
2018-09-08T03:09:46.387Z,1009.74
2018-09-08T03:10:46.385Z,1009.73
2018-09-08T03:11:46.369Z,1009.73
2018-09-08T03:12:46.356Z,1009.74
2018-09-08T03:13:46.369Z,1009.74
2018-09-08T03:14:46.336Z,1009.77
2018-09-08T03:15:46.325Z,1009.74
2018-09-08T03:16:46.323Z,1009.75
2018-09-08T03:17:46.311Z,1009.76
2018-09-08T03:18:46.304Z,1009.77
2018-09-08T03:19:46.305Z,1009.75
2018-09-08T03:20:46.274Z,1009.75
2018-09-08T03:21:46.269Z,1009.74
2018-09-08T03:22:46.255Z,1009.79
2018-09-08T03:23:46.253Z,1009.77
2018-09-08T03:24:46.234Z,1009.77
2018-09-08T03:25:46.218Z,1009.79
2018-09-08T03:26:46.207Z,1009.80
2018-09-08T03:27:46.222Z,1009.83
2018-09-08T03:28:46.217Z,1009.85
2018-09-08T03:29:46.176Z,1009.89
2018-09-08T03:30:46.258Z,1009.91
2018-09-08T03:31:46.153Z,1009.91
2018-09-08T03:32:46.143Z,1009.87
2018-09-08T03:33:46.133Z,1009.92
2018-09-08T03:34:46.137Z,1009.91
2018-09-08T03:35:46.111Z,1009.95
2018-09-08T03:36:46.102Z,1009.89
2018-09-08T03:37:46.097Z,1009.93
2018-09-08T03:38:46.078Z,1009.94
2018-09-08T03:39:46.083Z,1009.92
2018-09-08T03:40:46.079Z,1009.95
2018-09-08T03:41:46.047Z,1009.94
2018-09-08T03:42:46.038Z,1009.95
2018-09-08T03:43:46.028Z,1009.94
2018-09-08T03:44:46.044Z,1009.93
2018-09-08T03:45:46.003Z,1009.93
2018-09-08T03:46:45.992Z,1009.94
2018-09-08T03:47:45.981Z,1009.96
2018-09-08T03:48:45.973Z,1009.94
2018-09-08T03:49:45.972Z,1009.98
2018-09-08T03:50:45.956Z,1009.97
2018-09-08T03:51:45.938Z,1009.96
2018-09-08T03:52:45.935Z,1009.98
2018-09-08T03:53:45.916Z,1009.99
2018-09-08T03:54:45.918Z,1010.00
2018-09-08T03:55:45.904Z,1009.99
2018-09-08T03:56:45.883Z,1010.02
2018-09-08T03:57:45.878Z,1010.02
2018-09-08T03:58:45.883Z,1010.00
2018-09-08T03:59:45.871Z,1010.02
2018-09-08T04:00:45.842Z,1010.02
2018-09-08T04:01:45.832Z,1010.02
2018-09-08T04:02:45.824Z,1009.99
2018-09-08T04:03:45.823Z,1009.97
2018-09-08T04:04:45.816Z,1010.01
2018-09-08T04:05:45.854Z,1010.00
2018-09-08T04:06:45.790Z,1010.05
2018-09-08T04:07:45.768Z,1010.07
2018-09-08T04:08:45.756Z,1010.08
2018-09-08T04:09:45.803Z,1010.04
2018-09-08T04:10:45.744Z,1010.13
2018-09-08T04:11:45.726Z,1010.13
2018-09-08T04:12:45.715Z,1010.12
2018-09-08T04:13:45.764Z,1010.16
2018-09-08T04:14:45.722Z,1010.16
2018-09-08T04:15:45.686Z,1010.19
2018-09-08T04:16:45.707Z,1010.17
2018-09-08T04:17:45.660Z,1010.21
2018-09-08T04:18:45.687Z,1010.17
2018-09-08T04:19:45.659Z,1010.18
2018-09-08T04:20:45.628Z,1010.18
2018-09-08T04:21:45.656Z,1010.23
2018-09-08T04:22:45.608Z,1010.17
2018-09-08T04:23:45.596Z,1010.21
2018-09-08T04:24:45.598Z,1010.17
2018-09-08T04:25:45.576Z,1010.19
2018-09-08T04:26:45.604Z,1010.20
2018-09-08T04:27:45.556Z,1010.24
2018-09-08T04:28:45.544Z,1010.24
2018-09-08T04:29:45.541Z,1010.26
2018-09-08T04:30:45.519Z,1010.24
2018-09-08T04:31:45.508Z,1010.29
2018-09-08T04:32:45.500Z,1010.30
2018-09-08T04:33:45.487Z,1010.27
2018-09-08T04:34:45.490Z,1010.28
2018-09-08T04:35:45.504Z,1010.29
2018-09-08T04:36:45.476Z,1010.32
2018-09-08T04:37:45.448Z,1010.27
2018-09-08T04:38:45.433Z,1010.31
2018-09-08T04:39:45.445Z,1010.35
2018-09-08T04:40:45.415Z,1010.41
2018-09-08T04:41:45.399Z,1010.43
2018-09-08T04:42:45.388Z,1010.40
2018-09-08T04:43:45.396Z,1010.42
2018-09-08T04:44:45.379Z,1010.41
2018-09-08T04:45:45.356Z,1010.42
2018-09-08T04:46:45.354Z,1010.42
2018-09-08T04:47:45.334Z,1010.42
2018-09-08T04:48:45.326Z,1010.45
2018-09-08T04:49:45.357Z,1010.49
2018-09-08T04:50:45.322Z,1010.46
2018-09-08T04:51:45.291Z,1010.44
2018-09-08T04:52:45.280Z,1010.47
2018-09-08T04:53:45.269Z,1010.49
2018-09-08T04:54:45.283Z,1010.46
2018-09-08T04:55:45.249Z,1010.50
2018-09-08T04:56:45.268Z,1010.44
2018-09-08T04:57:45.227Z,1010.47
2018-09-08T04:58:45.215Z,1010.49
2018-09-08T04:59:45.238Z,1010.48
2018-09-08T05:00:45.208Z,1010.52
2018-09-08T05:01:45.188Z,1010.53
2018-09-08T05:02:45.174Z,1010.48
2018-09-08T05:03:45.186Z,1010.54
2018-09-08T05:04:45.151Z,1010.55
2018-09-08T05:05:45.151Z,1010.56
2018-09-08T05:06:45.134Z,1010.55
2018-09-08T05:07:45.120Z,1010.57
2018-09-08T05:08:45.107Z,1010.58
2018-09-08T05:09:45.157Z,1010.58
2018-09-08T05:10:45.098Z,1010.59
2018-09-08T05:11:45.074Z,1010.59
2018-09-08T05:12:45.073Z,1010.61
2018-09-08T05:13:45.060Z,1010.59
2018-09-08T05:14:45.045Z,1010.58
2018-09-08T05:15:45.043Z,1010.59
2018-09-08T05:16:45.052Z,1010.56
2018-09-08T05:17:45.009Z,1010.60
2018-09-08T05:18:45.000Z,1010.58
2018-09-08T05:19:44.986Z,1010.59
2018-09-08T05:20:44.989Z,1010.60
2018-09-08T05:21:44.967Z,1010.57
2018-09-08T05:22:44.969Z,1010.55
2018-09-08T05:23:44.960Z,1010.60
2018-09-08T05:24:44.939Z,1010.64
2018-09-08T05:25:44.935Z,1010.64
2018-09-08T05:26:44.914Z,1010.59
2018-09-08T05:27:44.905Z,1010.62
2018-09-08T05:28:44.913Z,1010.60
2018-09-08T05:29:44.876Z,1010.63
2018-09-08T05:30:44.878Z,1010.62
2018-09-08T05:31:44.855Z,1010.63
2018-09-08T05:32:44.902Z,1010.64
2018-09-08T05:33:44.833Z,1010.66
2018-09-08T05:34:44.823Z,1010.64
2018-09-08T05:35:44.841Z,1010.63
2018-09-08T05:36:44.800Z,1010.60
2018-09-08T05:37:44.789Z,1010.63
2018-09-08T05:38:44.796Z,1010.65
2018-09-08T05:39:44.767Z,1010.62
2018-09-08T05:40:44.787Z,1010.62
2018-09-08T05:41:44.750Z,1010.63
2018-09-08T05:42:44.739Z,1010.66
2018-09-08T05:43:44.755Z,1010.70
2018-09-08T05:44:44.714Z,1010.67
2018-09-08T05:45:44.730Z,1010.66
2018-09-08T05:46:44.716Z,1010.72
2018-09-08T05:47:44.680Z,1010.64
2018-09-08T05:48:44.689Z,1010.71
2018-09-08T05:49:44.660Z,1010.73
2018-09-08T05:50:44.664Z,1010.75
2018-09-08T05:51:44.638Z,1010.75
2018-09-08T05:52:44.649Z,1010.75
2018-09-08T05:53:44.619Z,1010.80
2018-09-08T05:54:44.605Z,1010.78
2018-09-08T05:55:44.592Z,1010.80
2018-09-08T05:56:44.594Z,1010.81
2018-09-08T05:57:44.589Z,1010.81
2018-09-08T05:58:44.578Z,1010.80
2018-09-08T05:59:44.552Z,1010.81
2018-09-08T06:00:44.547Z,1010.78
2018-09-08T06:01:44.539Z,1010.84
2018-09-08T06:02:44.514Z,1010.82
2018-09-08T06:03:44.510Z,1010.84
2018-09-08T06:04:44.496Z,1010.85
2018-09-08T06:05:44.482Z,1010.88
2018-09-08T06:06:44.481Z,1010.86
2018-09-08T06:07:44.460Z,1010.89
2018-09-08T06:08:44.470Z,1010.88
2018-09-08T06:09:44.453Z,1010.89
2018-09-08T06:10:44.427Z,1010.95
2018-09-08T06:11:44.426Z,1010.90
2018-09-08T06:12:44.405Z,1010.97
2018-09-08T06:13:44.393Z,1011.00
2018-09-08T06:14:44.387Z,1011.00
2018-09-08T06:15:44.378Z,1010.99
2018-09-08T06:16:44.398Z,1010.97
2018-09-08T06:17:44.351Z,1010.99
2018-09-08T06:18:44.383Z,1010.99
2018-09-08T06:19:44.468Z,1010.97
2018-09-08T06:20:44.319Z,1010.98
2018-09-08T06:21:44.336Z,1010.95
2018-09-08T06:22:44.338Z,1010.99
2018-09-08T06:23:44.304Z,1011.00
2018-09-08T06:24:44.273Z,1011.00
2018-09-08T06:25:44.267Z,1011.00
2018-09-08T06:26:44.260Z,1011.03
2018-09-08T06:27:44.264Z,1011.03
2018-09-08T06:28:44.237Z,1011.03
2018-09-08T06:29:44.217Z,1010.99
2018-09-08T06:30:44.211Z,1011.03
2018-09-08T06:31:44.266Z,1011.06
2018-09-08T06:32:44.188Z,1011.04
2018-09-08T06:33:44.178Z,1011.03
2018-09-08T06:34:44.161Z,1011.06
2018-09-08T06:35:44.154Z,1011.07
2018-09-08T06:36:44.163Z,1011.08
2018-09-08T06:37:44.129Z,1011.11
2018-09-08T06:38:44.133Z,1011.11
2018-09-08T06:39:44.107Z,1011.08
2018-09-08T06:40:44.096Z,1011.10
2018-09-08T06:41:44.095Z,1011.12
2018-09-08T06:42:44.085Z,1011.12
2018-09-08T06:43:44.065Z,1011.13
2018-09-08T06:44:44.091Z,1011.15
2018-09-08T06:45:44.041Z,1011.12
2018-09-08T06:46:44.045Z,1011.12
2018-09-08T06:47:44.020Z,1011.14
2018-09-08T06:48:44.013Z,1011.13
2018-09-08T06:49:44.010Z,1011.17
2018-09-08T06:50:43.989Z,1011.21
2018-09-08T06:51:43.977Z,1011.20
2018-09-08T06:52:43.979Z,1011.17
2018-09-08T06:53:43.959Z,1011.18
2018-09-08T06:54:43.964Z,1011.20
2018-09-08T06:55:43.965Z,1011.23
2018-09-08T06:56:43.955Z,1011.25
2018-09-08T06:57:43.959Z,1011.22
2018-09-08T06:58:43.920Z,1011.21
2018-09-08T06:59:43.919Z,1011.21
2018-09-08T07:00:43.881Z,1011.21
2018-09-08T07:01:43.871Z,1011.23
2018-09-08T07:02:43.872Z,1011.24
2018-09-08T07:03:43.849Z,1011.21
2018-09-08T07:04:43.842Z,1011.21
2018-09-08T07:05:43.828Z,1011.22
2018-09-08T07:06:43.819Z,1011.24
2018-09-08T07:07:43.838Z,1011.21
2018-09-08T07:08:43.817Z,1011.11
2018-09-08T07:09:43.786Z,1011.13
2018-09-08T07:10:43.775Z,1011.11
2018-09-08T07:11:43.765Z,1011.15
2018-09-08T07:12:43.784Z,1011.14
2018-09-08T07:13:43.776Z,1011.20
2018-09-08T07:14:43.796Z,1011.17
2018-09-08T07:15:43.723Z,1011.18
2018-09-08T07:16:43.718Z,1011.20
2018-09-08T07:17:43.737Z,1011.24
2018-09-08T07:18:43.714Z,1011.21
2018-09-08T07:19:43.679Z,1011.24
2018-09-08T07:20:43.725Z,1011.23
2018-09-08T07:21:43.663Z,1011.22
2018-09-08T07:22:43.660Z,1011.18
2018-09-08T07:23:43.637Z,1011.24
2018-09-08T07:24:43.709Z,1011.23
2018-09-08T07:25:43.627Z,1011.25
2018-09-08T07:26:43.604Z,1011.28
2018-09-08T07:27:43.642Z,1011.29
2018-09-08T07:28:43.584Z,1011.30
2018-09-08T07:29:43.573Z,1011.26
2018-09-08T07:30:43.563Z,1011.27
2018-09-08T07:31:43.558Z,1011.26
2018-09-08T07:32:43.553Z,1011.25
2018-09-08T07:33:43.529Z,1011.26
2018-09-08T07:34:43.519Z,1011.27
2018-09-08T07:35:43.513Z,1011.26
2018-09-08T07:36:43.499Z,1011.25
2018-09-08T07:37:43.505Z,1011.23
2018-09-08T07:38:43.477Z,1011.28
2018-09-08T07:39:43.476Z,1011.32
2018-09-08T07:40:43.467Z,1011.27
2018-09-08T07:41:43.448Z,1011.28
2018-09-08T07:42:43.449Z,1011.29
2018-09-08T07:43:43.426Z,1011.30
2018-09-08T07:44:43.413Z,1011.30
2018-09-08T07:45:43.406Z,1011.27
2018-09-08T07:46:43.396Z,1011.26
2018-09-08T07:47:43.404Z,1011.30
2018-09-08T07:48:43.373Z,1011.31
2018-09-08T07:49:43.365Z,1011.34
2018-09-08T07:50:43.367Z,1011.28
2018-09-08T07:51:43.343Z,1011.30
2018-09-08T07:52:43.346Z,1011.28
2018-09-08T07:53:43.393Z,1011.30
2018-09-08T07:54:43.309Z,1011.30
2018-09-08T07:55:43.298Z,1011.32
2018-09-08T07:56:43.293Z,1011.29
2018-09-08T07:57:43.305Z,1011.32
2018-09-08T07:58:43.300Z,1011.34
2018-09-08T07:59:43.253Z,1011.31
2018-09-08T08:00:43.295Z,1011.36
2018-09-08T08:01:43.233Z,1011.32
2018-09-08T08:02:43.223Z,1011.34
2018-09-08T08:03:43.232Z,1011.35
2018-09-08T08:04:43.208Z,1011.37
2018-09-08T08:05:43.187Z,1011.36
2018-09-08T08:06:43.241Z,1011.32
2018-09-08T08:07:43.214Z,1011.34
2018-09-08T08:08:43.167Z,1011.40
2018-09-08T08:09:43.144Z,1011.36
2018-09-08T08:10:43.149Z,1011.41
2018-09-08T08:11:43.125Z,1011.43
2018-09-08T08:12:43.117Z,1011.41
2018-09-08T08:13:43.135Z,1011.47
2018-09-08T08:14:43.092Z,1011.41
2018-09-08T08:15:43.081Z,1011.45
2018-09-08T08:16:43.069Z,1011.45
2018-09-08T08:17:43.063Z,1011.42
2018-09-08T08:18:43.059Z,1011.46
2018-09-08T08:19:43.034Z,1011.41
2018-09-08T08:20:43.041Z,1011.43
2018-09-08T08:21:43.019Z,1011.41
2018-09-08T08:22:43.001Z,1011.43
2018-09-08T08:23:43.022Z,1011.41
2018-09-08T08:24:42.979Z,1011.43
2018-09-08T08:25:42.969Z,1011.40
2018-09-08T08:26:42.972Z,1011.41
2018-09-08T08:27:42.947Z,1011.44
2018-09-08T08:28:42.947Z,1011.46
2018-09-08T08:29:42.928Z,1011.43
2018-09-08T08:30:42.914Z,1011.47
2018-09-08T08:31:42.907Z,1011.46
2018-09-08T08:32:42.892Z,1011.46
2018-09-08T08:33:42.898Z,1011.42
2018-09-08T08:34:42.878Z,1011.44
2018-09-08T08:35:42.871Z,1011.51
2018-09-08T08:36:42.859Z,1011.47
2018-09-08T08:37:42.837Z,1011.47
2018-09-08T08:38:42.846Z,1011.49
2018-09-08T08:39:42.815Z,1011.48
2018-09-08T08:40:42.805Z,1011.50
2018-09-08T08:41:42.793Z,1011.50
2018-09-08T08:42:42.783Z,1011.50
2018-09-08T08:43:42.808Z,1011.53
2018-09-08T08:44:42.762Z,1011.57
2018-09-08T08:45:42.748Z,1011.56
2018-09-08T08:46:42.737Z,1011.59
2018-09-08T08:47:42.727Z,1011.59
2018-09-08T08:48:42.737Z,1011.55
2018-09-08T08:49:42.718Z,1011.57
2018-09-08T08:50:42.700Z,1011.54
2018-09-08T08:51:42.704Z,1011.59
2018-09-08T08:52:42.673Z,1011.58
2018-09-08T08:53:42.750Z,1011.64
2018-09-08T08:54:42.660Z,1011.66
2018-09-08T08:55:42.652Z,1011.65
2018-09-08T08:56:42.626Z,1011.64
2018-09-08T08:57:42.621Z,1011.65
2018-09-08T08:58:42.630Z,1011.64
2018-09-08T08:59:42.613Z,1011.62
2018-09-08T09:00:42.581Z,1011.62
2018-09-08T09:01:42.587Z,1011.68
2018-09-08T09:02:42.563Z,1011.61
2018-09-08T09:03:42.552Z,1011.58
2018-09-08T09:04:42.569Z,1011.65
2018-09-08T09:05:42.533Z,1011.64
2018-09-08T09:06:42.517Z,1011.62
2018-09-08T09:07:42.505Z,1011.64
2018-09-08T09:08:42.747Z,1011.69
2018-09-08T09:09:42.521Z,1011.62
2018-09-08T09:10:42.472Z,1011.62
2018-09-08T09:11:42.468Z,1011.62
2018-09-08T09:12:42.462Z,1011.70
2018-09-08T09:13:42.439Z,1011.63
2018-09-08T09:14:42.443Z,1011.67
2018-09-08T09:15:42.418Z,1011.66
2018-09-08T09:16:42.408Z,1011.60
2018-09-08T09:17:42.396Z,1011.68
2018-09-08T09:18:42.951Z,1011.69
2018-09-08T09:19:42.385Z,1011.69
2018-09-08T09:20:42.366Z,1011.66
2018-09-08T09:21:42.351Z,1011.67
2018-09-08T09:22:42.363Z,1011.61
2018-09-08T09:23:42.330Z,1011.59
2018-09-08T09:24:43.152Z,1011.57
2018-09-08T09:25:42.317Z,1011.63
2018-09-08T09:26:42.300Z,1011.60
2018-09-08T09:27:42.284Z,1011.63
2018-09-08T09:28:42.276Z,1011.60
2018-09-08T09:29:42.279Z,1011.60
2018-09-08T09:30:42.251Z,1011.62
2018-09-08T09:31:42.296Z,1011.59
2018-09-08T09:32:42.231Z,1011.63
2018-09-08T09:33:42.221Z,1011.65
2018-09-08T09:34:42.232Z,1011.63
2018-09-08T09:35:42.224Z,1011.66
2018-09-08T09:36:42.186Z,1011.62
2018-09-08T09:37:42.179Z,1011.64
2018-09-08T09:38:42.169Z,1011.56
2018-09-08T09:39:42.171Z,1011.57
2018-09-08T09:40:42.145Z,1011.59
2018-09-08T09:41:42.137Z,1011.57
2018-09-08T09:42:42.118Z,1011.61
2018-09-08T09:43:42.118Z,1011.59
2018-09-08T09:44:42.125Z,1011.58
2018-09-08T09:45:42.103Z,1011.58
2018-09-08T09:46:42.073Z,1011.62
2018-09-08T09:47:42.065Z,1011.59
2018-09-08T09:48:42.050Z,1011.60
2018-09-08T09:49:42.041Z,1011.62
2018-09-08T09:50:42.039Z,1011.60
2018-09-08T09:51:42.030Z,1011.59
2018-09-08T09:52:42.012Z,1011.58
2018-09-08T09:53:41.995Z,1011.61
2018-09-08T09:54:41.985Z,1011.61
2018-09-08T09:55:42.032Z,1011.59
2018-09-08T09:56:41.964Z,1011.55
2018-09-08T09:57:41.951Z,1011.56
2018-09-08T09:58:41.941Z,1011.54
2018-09-08T09:59:41.933Z,1011.58
2018-09-08T10:00:41.930Z,1011.62
2018-09-08T10:01:41.909Z,1011.56
2018-09-08T10:02:41.907Z,1011.59
2018-09-08T10:03:41.888Z,1011.61
2018-09-08T10:04:41.875Z,1011.62
2018-09-08T10:05:41.884Z,1011.57
2018-09-08T10:06:41.856Z,1011.61
2018-09-08T10:07:41.840Z,1011.58
2018-09-08T10:08:41.844Z,1011.60
2018-09-08T10:09:41.817Z,1011.63
2018-09-08T10:10:41.818Z,1011.56
2018-09-08T10:11:41.798Z,1011.59
2018-09-08T10:12:41.785Z,1011.63
2018-09-08T10:13:41.777Z,1011.63
2018-09-08T10:14:41.769Z,1011.61
2018-09-08T10:15:41.797Z,1011.62
2018-09-08T10:16:41.740Z,1011.63
2018-09-08T10:17:41.730Z,1011.56
2018-09-08T10:18:41.721Z,1011.54
2018-09-08T10:19:41.714Z,1011.60
2018-09-08T10:20:41.710Z,1011.58
2018-09-08T10:21:41.709Z,1011.55
2018-09-08T10:22:41.681Z,1011.53
2018-09-08T10:23:41.664Z,1011.54
2018-09-08T10:24:41.654Z,1011.57
2018-09-08T10:25:41.676Z,1011.53
2018-09-08T10:26:41.628Z,1011.56
2018-09-08T10:27:41.628Z,1011.48
2018-09-08T10:28:41.605Z,1011.54
2018-09-08T10:29:41.606Z,1011.55
2018-09-08T10:30:41.619Z,1011.57
2018-09-08T10:31:41.598Z,1011.54
2018-09-08T10:32:41.563Z,1011.54
2018-09-08T10:33:41.552Z,1011.60
2018-09-08T10:34:41.584Z,1011.60
2018-09-08T10:35:41.534Z,1011.55
2018-09-08T10:36:41.536Z,1011.60
2018-09-08T10:37:41.536Z,1011.63
2018-09-08T10:38:41.494Z,1011.65
2018-09-08T10:39:41.485Z,1011.66
2018-09-08T10:40:41.475Z,1011.65
2018-09-08T10:41:41.503Z,1011.68
2018-09-08T10:42:41.448Z,1011.69
2018-09-08T10:43:41.441Z,1011.64
2018-09-08T10:44:41.435Z,1011.60
2018-09-08T10:45:41.421Z,1011.58
2018-09-08T10:46:41.425Z,1011.57
2018-09-08T10:47:41.394Z,1011.59
2018-09-08T10:48:41.384Z,1011.63
2018-09-08T10:49:41.369Z,1011.62
2018-09-08T10:50:41.377Z,1011.58
2018-09-08T10:51:41.392Z,1011.62
2018-09-08T10:52:41.339Z,1011.58
2018-09-08T10:53:41.332Z,1011.66
2018-09-08T10:54:41.336Z,1011.64
2018-09-08T10:55:41.303Z,1011.67
2018-09-08T10:56:41.444Z,1011.64
2018-09-08T10:57:41.288Z,1011.66
2018-09-08T10:58:41.277Z,1011.67
2018-09-08T10:59:41.292Z,1011.67
2018-09-08T11:00:41.247Z,1011.65
2018-09-08T11:01:41.339Z,1011.67
2018-09-08T11:02:41.527Z,1011.69
2018-09-08T11:03:41.212Z,1011.68
2018-09-08T11:04:41.212Z,1011.71
2018-09-08T11:05:41.189Z,1011.68
2018-09-08T11:06:41.180Z,1011.63
2018-09-08T11:07:41.230Z,1011.68
2018-09-08T11:08:41.157Z,1011.61
2018-09-08T11:09:41.152Z,1011.64
2018-09-08T11:10:41.136Z,1011.65
2018-09-08T11:11:41.124Z,1011.65
2018-09-08T11:12:41.123Z,1011.58
2018-09-08T11:13:41.103Z,1011.66
2018-09-08T11:14:41.090Z,1011.67
2018-09-08T11:15:41.101Z,1011.68
2018-09-08T11:16:41.069Z,1011.66
2018-09-08T11:17:41.116Z,1011.64
2018-09-08T11:18:41.077Z,1011.68
2018-09-08T11:19:41.035Z,1011.65
2018-09-08T11:20:41.116Z,1011.71
2018-09-08T11:21:41.029Z,1011.66
2018-09-08T11:22:41.012Z,1011.70
2018-09-08T11:23:40.994Z,1011.69
2018-09-08T11:24:40.991Z,1011.73
2018-09-08T11:25:40.967Z,1011.65
2018-09-08T11:26:40.967Z,1011.68
2018-09-08T11:27:40.962Z,1011.70
2018-09-08T11:28:40.934Z,1011.65
2018-09-08T11:29:40.928Z,1011.68
2018-09-08T11:30:40.973Z,1011.70
2018-09-08T11:31:40.969Z,1011.74
2018-09-08T11:32:40.917Z,1011.70
2018-09-08T11:33:40.879Z,1011.72
2018-09-08T11:34:40.865Z,1011.69
2018-09-08T11:35:40.861Z,1011.73
2018-09-08T11:36:40.845Z,1011.71
2018-09-08T11:37:40.867Z,1011.69
2018-09-08T11:38:40.820Z,1011.66
2018-09-08T11:39:40.813Z,1011.71
2018-09-08T11:40:40.799Z,1011.67
2018-09-08T11:41:40.855Z,1011.69
2018-09-08T11:42:40.778Z,1011.69
2018-09-08T11:43:40.781Z,1011.70
2018-09-08T11:44:40.851Z,1011.67
2018-09-08T11:45:40.824Z,1011.66
2018-09-08T11:46:40.732Z,1011.66
2018-09-08T11:47:40.719Z,1011.62
2018-09-08T11:48:40.722Z,1011.64
2018-09-08T11:49:40.766Z,1011.64
2018-09-08T11:50:40.715Z,1011.65
2018-09-08T11:51:40.676Z,1011.63
2018-09-08T11:52:40.665Z,1011.61
2018-09-08T11:53:40.692Z,1011.60
2018-09-08T11:54:40.646Z,1011.57
2018-09-08T11:55:40.666Z,1011.61
2018-09-08T11:56:40.623Z,1011.59
2018-09-08T11:57:40.609Z,1011.62
2018-09-08T11:58:40.625Z,1011.62
2018-09-08T11:59:40.599Z,1011.57
2018-09-08T12:00:40.579Z,1011.60
2018-09-08T12:01:40.565Z,1011.58
2018-09-08T12:02:40.558Z,1011.55
2018-09-08T12:03:40.577Z,1011.56
2018-09-08T12:04:40.531Z,1011.50
2018-09-08T12:05:40.521Z,1011.50